sensor_id;sensor_type;location;lat;lon;timestamp;temperature;humidity
22153;DHT22;11242;50.536;12.688;2023-03-31T06:32:42;10.30;99.90
22153;DHT22;11242;50.536;12.688;2023-03-31T06:35:08;10.40;99.90
22153;DHT22;11242;50.536;12.688;2023-03-31T06:37:33;10.50;99.90
22153;DHT22;11242;50.536;12.688;2023-03-31T06:39:59;10.50;99.90
22153;DHT22;11242;50.536;12.688;2023-03-31T06:42:24;10.50;99.90
22153;DHT22;11242;50.536;12.688;2023-03-31T06:44:50;10.50;99.90
22153;DHT22;11242;50.536;12.688;2023-03-31T06:47:16;10.40;99.90
22153;DHT22;11242;50.536;12.688;2023-03-31T06:49:41;10.40;99.90
22153;DHT22;11242;50.536;12.688;2023-03-31T06:52:07;10.50;99.90
22153;DHT22;11242;50.536;12.688;2023-03-31T06:54:32;10.60;99.90
22153;DHT22;11242;50.536;12.688;2023-03-31T06:56:58;10.60;99.90
22153;DHT22;11242;50.536;12.688;2023-03-31T06:59:23;10.80;99.90
22153;DHT22;11242;50.536;12.688;2023-03-31T07:01:49;10.90;99.90
22153;DHT22;11242;50.536;12.688;2023-03-31T07:04:15;10.80;99.90
22153;DHT22;11242;50.536;12.688;2023-03-31T07:06:41;11.30;99.90
22153;DHT22;11242;50.536;12.688;2023-03-31T07:09:06;11.60;99.90
22153;DHT22;11242;50.536;12.688;2023-03-31T07:11:32;11.70;99.90
22153;DHT22;11242;50.536;12.688;2023-03-31T07:13:57;12.30;99.90
22153;DHT22;11242;50.536;12.688;2023-03-31T07:16:23;12.80;99.90
22153;DHT22;11242;50.536;12.688;2023-03-31T07:18:48;13.10;99.90
22153;DHT22;11242;50.536;12.688;2023-03-31T07:21:15;13.00;99.90
22153;DHT22;11242;50.536;12.688;2023-03-31T07:23:41;12.80;99.90
22153;DHT22;11242;50.536;12.688;2023-03-31T07:26:06;12.40;99.90
22153;DHT22;11242;50.536;12.688;2023-03-31T07:28:33;11.90;99.90
22153;DHT22;11242;50.536;12.688;2023-03-31T07:30:59;11.40;99.90
22153;DHT22;11242;50.536;12.688;2023-03-31T07:33:24;11.00;99.90
22153;DHT22;11242;50.536;12.688;2023-03-31T07:35:50;10.60;99.90
22153;DHT22;11242;50.536;12.688;2023-03-31T07:38:16;10.40;99.90
22153;DHT22;11242;50.536;12.688;2023-03-31T07:40:43;10.40;99.90
22153;DHT22;11242;50.536;12.688;2023-03-31T07:43:09;10.30;99.90
22153;DHT22;11242;50.536;12.688;2023-03-31T07:45:36;10.20;99.90
22153;DHT22;11242;50.536;12.688;2023-03-31T07:48:03;10.20;99.90
22153;DHT22;11242;50.536;12.688;2023-03-31T07:50:29;10.10;99.90
22153;DHT22;11242;50.536;12.688;2023-03-31T07:52:56;10.10;99.90
22153;DHT22;11242;50.536;12.688;2023-03-31T07:55:22;10.00;99.90
22153;DHT22;11242;50.536;12.688;2023-03-31T07:57:48;9.90;99.90
22153;DHT22;11242;50.536;12.688;2023-03-31T08:00:16;9.80;99.90
22153;DHT22;11242;50.536;12.688;2023-03-31T08:02:42;9.70;99.90
22153;DHT22;11242;50.536;12.688;2023-03-31T08:05:08;9.70;99.90
22153;DHT22;11242;50.536;12.688;2023-03-31T08:07:35;9.60;99.90
22153;DHT22;11242;50.536;12.688;2023-03-31T08:10:03;9.70;99.90
22153;DHT22;11242;50.536;12.688;2023-03-31T08:12:30;9.70;99.90
22153;DHT22;11242;50.536;12.688;2023-03-31T08:14:55;9.80;99.90
22153;DHT22;11242;50.536;12.688;2023-03-31T08:17:21;9.70;99.90
22153;DHT22;11242;50.536;12.688;2023-03-31T08:19:46;9.70;99.90
22153;DHT22;11242;50.536;12.688;2023-03-31T08:22:12;9.70;99.90
22153;DHT22;11242;50.536;12.688;2023-03-31T08:24:38;9.60;99.90
22153;DHT22;11242;50.536;12.688;2023-03-31T08:27:03;9.50;99.90
22153;DHT22;11242;50.536;12.688;2023-03-31T08:29:29;9.50;99.90
22153;DHT22;11242;50.536;12.688;2023-03-31T08:31:54;9.60;99.90
22153;DHT22;11242;50.536;12.688;2023-03-31T08:34:20;9.50;99.90
22153;DHT22;11242;50.536;12.688;2023-03-31T08:36:45;9.60;99.90
22153;DHT22;11242;50.536;12.688;2023-03-31T08:39:12;9.70;99.90
22153;DHT22;11242;50.536;12.688;2023-03-31T08:41:50;9.90;99.90
22153;DHT22;11242;50.536;12.688;2023-03-31T08:46:47;10.30;99.90
22153;DHT22;11242;50.536;12.688;2023-03-31T08:49:15;10.30;99.90
22153;DHT22;11242;50.536;12.688;2023-03-31T08:52:03;10.30;99.90
22153;DHT22;11242;50.536;12.688;2023-03-31T08:54:45;10.30;99.90
22153;DHT22;11242;50.536;12.688;2023-03-31T08:57:24;10.30;99.90
22153;DHT22;11242;50.536;12.688;2023-03-31T08:59:50;10.40;99.90
22153;DHT22;11242;50.536;12.688;2023-03-31T09:08:16;10.30;99.90
22153;DHT22;11242;50.536;12.688;2023-03-31T09:16:15;10.50;99.90
22153;DHT22;11242;50.536;12.688;2023-03-31T09:18:44;10.80;99.90
22153;DHT22;11242;50.536;12.688;2023-03-31T09:21:34;11.30;99.90
22153;DHT22;11242;50.536;12.688;2023-03-31T09:24:22;11.20;99.90
22153;DHT22;11242;50.536;12.688;2023-03-31T09:27:00;11.50;99.90
22153;DHT22;11242;50.536;12.688;2023-03-31T09:32:13;11.50;99.90
22153;DHT22;11242;50.536;12.688;2023-03-31T09:34:39;11.60;99.90
22153;DHT22;11242;50.536;12.688;2023-03-31T09:37:05;11.50;99.90
22153;DHT22;11242;50.536;12.688;2023-03-31T09:39:31;11.30;99.90
22153;DHT22;11242;50.536;12.688;2023-03-31T09:41:56;11.30;99.90
22153;DHT22;11242;50.536;12.688;2023-03-31T09:46:58;10.80;99.90
22153;DHT22;11242;50.536;12.688;2023-03-31T09:49:27;10.50;99.90
22153;DHT22;11242;50.536;12.688;2023-03-31T09:52:05;10.30;99.90
22153;DHT22;11242;50.536;12.688;2023-03-31T09:54:40;10.30;99.90
22153;DHT22;11242;50.536;12.688;2023-03-31T09:57:23;10.30;99.90
22153;DHT22;11242;50.536;12.688;2023-03-31T09:59:50;10.20;99.90
22153;DHT22;11242;50.536;12.688;2023-03-31T10:02:42;10.10;99.90
22153;DHT22;11242;50.536;12.688;2023-03-31T10:07:47;9.80;99.90
22153;DHT22;11242;50.536;12.688;2023-03-31T10:10:32;9.80;99.90
22153;DHT22;11242;50.536;12.688;2023-03-31T10:12:59;9.90;99.90
22153;DHT22;11242;50.536;12.688;2023-03-31T10:15:27;9.70;99.90
22153;DHT22;11242;50.536;12.688;2023-03-31T10:17:52;9.50;99.90
22153;DHT22;11242;50.536;12.688;2023-03-31T10:20:30;9.30;99.90
22153;DHT22;11242;50.536;12.688;2023-03-31T10:25:46;9.30;99.90
22153;DHT22;11242;50.536;12.688;2023-03-31T10:28:16;9.20;99.90
22153;DHT22;11242;50.536;12.688;2023-03-31T10:30:53;9.20;99.90
22153;DHT22;11242;50.536;12.688;2023-03-31T10:33:23;9.10;99.90
22153;DHT22;11242;50.536;12.688;2023-03-31T10:36:00;9.10;99.90
22153;DHT22;11242;50.536;12.688;2023-03-31T10:38:30;9.10;99.90
22153;DHT22;11242;50.536;12.688;2023-03-31T10:40:58;9.10;99.90
22153;DHT22;11242;50.536;12.688;2023-03-31T10:43:29;9.10;99.90
22153;DHT22;11242;50.536;12.688;2023-03-31T10:46:00;9.10;99.90
22153;DHT22;11242;50.536;12.688;2023-03-31T10:51:10;9.20;99.90
22153;DHT22;11242;50.536;12.688;2023-03-31T10:54:02;9.20;99.90
22153;DHT22;11242;50.536;12.688;2023-03-31T10:56:46;9.20;99.90
22153;DHT22;11242;50.536;12.688;2023-03-31T11:02:43;9.10;99.90
22153;DHT22;11242;50.536;12.688;2023-03-31T11:05:22;9.10;99.90
22153;DHT22;11242;50.536;12.688;2023-03-31T11:08:12;9.20;99.90
22153;DHT22;11242;50.536;12.688;2023-03-31T11:10:57;9.50;99.90
22153;DHT22;11242;50.536;12.688;2023-03-31T11:13:57;9.60;99.90
22153;DHT22;11242;50.536;12.688;2023-03-31T11:22:50;9.40;99.90
22153;DHT22;11242;50.536;12.688;2023-03-31T11:25:36;9.30;99.90
22153;DHT22;11242;50.536;12.688;2023-03-31T11:28:35;9.30;99.90
22153;DHT22;11242;50.536;12.688;2023-03-31T11:33:54;9.60;99.90
22153;DHT22;11242;50.536;12.688;2023-03-31T11:41:56;9.40;99.90
22153;DHT22;11242;50.536;12.688;2023-03-31T11:44:34;9.30;99.90
22153;DHT22;11242;50.536;12.688;2023-03-31T11:47:06;9.30;99.90
22153;DHT22;11242;50.536;12.688;2023-03-31T11:49:55;9.30;99.90
22153;DHT22;11242;50.536;12.688;2023-03-31T11:52:28;9.40;99.90
22153;DHT22;11242;50.536;12.688;2023-03-31T11:55:05;9.50;99.90
22153;DHT22;11242;50.536;12.688;2023-03-31T11:58:09;9.60;99.90
22153;DHT22;11242;50.536;12.688;2023-03-31T12:00:50;9.90;99.90
22153;DHT22;11242;50.536;12.688;2023-03-31T12:03:37;10.10;99.90
22153;DHT22;11242;50.536;12.688;2023-03-31T12:06:14;10.30;99.90
22153;DHT22;11242;50.536;12.688;2023-03-31T12:08:52;10.40;99.90
22153;DHT22;11242;50.536;12.688;2023-03-31T12:11:30;10.70;99.90
22153;DHT22;11242;50.536;12.688;2023-03-31T12:14:26;10.90;99.90
22153;DHT22;11242;50.536;12.688;2023-03-31T12:17:03;11.20;99.90
22153;DHT22;11242;50.536;12.688;2023-03-31T12:24:54;12.00;99.90
22153;DHT22;11242;50.536;12.688;2023-03-31T12:27:32;12.20;99.90
22153;DHT22;11242;50.536;12.688;2023-03-31T12:32:37;12.00;99.90
22153;DHT22;11242;50.536;12.688;2023-03-31T12:35:53;11.90;99.90
22153;DHT22;11242;50.536;12.688;2023-03-31T12:40:56;11.70;99.90
22153;DHT22;11242;50.536;12.688;2023-03-31T12:44:01;11.50;99.90
22153;DHT22;11242;50.536;12.688;2023-03-31T12:52:01;11.30;99.90
22153;DHT22;11242;50.536;12.688;2023-03-31T12:57:26;12.00;99.90
22153;DHT22;11242;50.536;12.688;2023-03-31T13:02:39;12.10;99.90
22153;DHT22;11242;50.536;12.688;2023-03-31T13:08:06;11.90;99.90
22153;DHT22;11242;50.536;12.688;2023-03-31T13:10:33;12.20;99.90
22153;DHT22;11242;50.536;12.688;2023-03-31T13:13:17;12.20;99.90
22153;DHT22;11242;50.536;12.688;2023-03-31T13:15:56;12.60;99.90
22153;DHT22;11242;50.536;12.688;2023-03-31T13:18:22;12.70;99.90
22153;DHT22;11242;50.536;12.688;2023-03-31T13:21:02;12.30;99.90
22153;DHT22;11242;50.536;12.688;2023-03-31T13:23:32;12.30;99.90
22153;DHT22;11242;50.536;12.688;2023-03-31T13:25:59;12.30;99.90
22153;DHT22;11242;50.536;12.688;2023-03-31T13:28:40;12.30;99.90
22153;DHT22;11242;50.536;12.688;2023-03-31T13:31:11;12.10;99.90
22153;DHT22;11242;50.536;12.688;2023-03-31T13:33:42;12.20;99.90
22153;DHT22;11242;50.536;12.688;2023-03-31T13:39:26;12.10;99.90
22153;DHT22;11242;50.536;12.688;2023-03-31T13:55:51;11.90;99.90
22153;DHT22;11242;50.536;12.688;2023-03-31T14:01:32;11.80;99.90
22153;DHT22;11242;50.536;12.688;2023-03-31T14:07:09;12.40;99.90
22153;DHT22;11242;50.536;12.688;2023-03-31T14:09:39;12.30;99.90
22153;DHT22;11242;50.536;12.688;2023-03-31T14:14:43;12.30;99.90
22153;DHT22;11242;50.536;12.688;2023-03-31T14:17:10;12.30;99.90
22153;DHT22;11242;50.536;12.688;2023-03-31T14:20:09;12.40;99.90
22153;DHT22;11242;50.536;12.688;2023-03-31T14:36:38;12.10;99.90
22153;DHT22;11242;50.536;12.688;2023-03-31T14:39:09;12.30;99.90
22153;DHT22;11242;50.536;12.688;2023-03-31T14:41:36;12.20;99.90
22153;DHT22;11242;50.536;12.688;2023-03-31T14:44:05;12.20;99.90
22153;DHT22;11242;50.536;12.688;2023-03-31T14:46:36;12.20;99.90
22153;DHT22;11242;50.536;12.688;2023-03-31T14:49:19;12.20;99.90
22153;DHT22;11242;50.536;12.688;2023-03-31T14:51:46;11.90;99.90
22153;DHT22;11242;50.536;12.688;2023-03-31T14:54:15;11.60;99.90
22153;DHT22;11242;50.536;12.688;2023-03-31T14:56:48;11.60;99.90
22153;DHT22;11242;50.536;12.688;2023-03-31T14:59:22;11.60;99.90
22153;DHT22;11242;50.536;12.688;2023-03-31T15:01:49;11.60;99.90
22153;DHT22;11242;50.536;12.688;2023-03-31T15:04:20;11.50;99.90
22153;DHT22;11242;50.536;12.688;2023-03-31T15:06:47;11.30;99.90
22153;DHT22;11242;50.536;12.688;2023-03-31T15:09:36;11.30;99.90
22153;DHT22;11242;50.536;12.688;2023-03-31T15:12:09;11.30;99.90
22153;DHT22;11242;50.536;12.688;2023-03-31T15:14:40;11.30;99.90
22153;DHT22;11242;50.536;12.688;2023-03-31T15:17:17;11.40;99.90
22153;DHT22;11242;50.536;12.688;2023-03-31T15:19:43;11.40;99.90
22153;DHT22;11242;50.536;12.688;2023-03-31T15:22:16;11.40;99.90
22153;DHT22;11242;50.536;12.688;2023-03-31T15:24:45;11.30;99.90
22153;DHT22;11242;50.536;12.688;2023-03-31T15:27:31;11.30;99.90
22153;DHT22;11242;50.536;12.688;2023-03-31T15:29:59;11.40;99.90
22153;DHT22;11242;50.536;12.688;2023-03-31T15:32:31;11.50;99.90
22153;DHT22;11242;50.536;12.688;2023-03-31T15:34:58;11.30;99.90
22153;DHT22;11242;50.536;12.688;2023-03-31T15:37:30;11.20;99.90
22153;DHT22;11242;50.536;12.688;2023-03-31T15:40:02;11.10;99.90
22153;DHT22;11242;50.536;12.688;2023-03-31T15:42:33;11.00;99.90
22153;DHT22;11242;50.536;12.688;2023-03-31T15:45:23;10.90;99.90
22153;DHT22;11242;50.536;12.688;2023-03-31T15:48:01;10.80;99.90
22153;DHT22;11242;50.536;12.688;2023-03-31T15:50:28;10.80;99.90
22153;DHT22;11242;50.536;12.688;2023-03-31T15:52:55;10.80;99.90
22153;DHT22;11242;50.536;12.688;2023-03-31T15:55:30;10.80;99.90
22153;DHT22;11242;50.536;12.688;2023-03-31T15:57:59;10.90;99.90
22153;DHT22;11242;50.536;12.688;2023-03-31T16:00:41;10.80;99.90
22153;DHT22;11242;50.536;12.688;2023-03-31T16:03:16;10.60;99.90
22153;DHT22;11242;50.536;12.688;2023-03-31T16:05:57;10.50;99.90
22153;DHT22;11242;50.536;12.688;2023-03-31T16:08:39;10.30;99.90
22153;DHT22;11242;50.536;12.688;2023-03-31T16:11:12;10.30;99.90
22153;DHT22;11242;50.536;12.688;2023-03-31T16:13:39;10.20;99.90
22153;DHT22;11242;50.536;12.688;2023-03-31T16:16:08;10.20;99.90
22153;DHT22;11242;50.536;12.688;2023-03-31T16:18:46;10.10;99.90
22153;DHT22;11242;50.536;12.688;2023-03-31T16:21:20;10.10;99.90
22153;DHT22;11242;50.536;12.688;2023-03-31T16:23:51;10.10;99.90
22153;DHT22;11242;50.536;12.688;2023-03-31T16:26:22;10.10;99.90
22153;DHT22;11242;50.536;12.688;2023-03-31T16:28:50;10.00;99.90
22153;DHT22;11242;50.536;12.688;2023-03-31T16:31:34;10.00;99.90
22153;DHT22;11242;50.536;12.688;2023-03-31T16:34:03;10.00;99.90
22153;DHT22;11242;50.536;12.688;2023-03-31T16:36:29;10.00;99.90
22153;DHT22;11242;50.536;12.688;2023-03-31T16:38:55;10.00;99.90
22153;DHT22;11242;50.536;12.688;2023-03-31T16:41:22;10.00;99.90
22153;DHT22;11242;50.536;12.688;2023-03-31T16:43:48;10.00;99.90
22153;DHT22;11242;50.536;12.688;2023-03-31T16:46:17;9.80;99.90
22153;DHT22;11242;50.536;12.688;2023-03-31T16:48:42;9.70;99.90
22153;DHT22;11242;50.536;12.688;2023-03-31T16:51:08;9.60;99.90
22153;DHT22;11242;50.536;12.688;2023-03-31T16:53:34;9.60;99.90
22153;DHT22;11242;50.536;12.688;2023-03-31T16:56:01;9.60;99.90
22153;DHT22;11242;50.536;12.688;2023-03-31T16:58:27;9.60;99.90
22153;DHT22;11242;50.536;12.688;2023-03-31T17:00:54;9.50;99.90
22153;DHT22;11242;50.536;12.688;2023-03-31T17:03:21;9.50;99.90
22153;DHT22;11242;50.536;12.688;2023-03-31T17:05:49;9.50;99.90
22153;DHT22;11242;50.536;12.688;2023-03-31T17:08:17;9.40;99.90
22153;DHT22;11242;50.536;12.688;2023-03-31T17:10:53;9.30;99.90
22153;DHT22;11242;50.536;12.688;2023-03-31T17:13:19;9.00;99.90
22153;DHT22;11242;50.536;12.688;2023-03-31T17:15:45;8.90;99.90
22153;DHT22;11242;50.536;12.688;2023-03-31T17:18:11;8.80;99.90
22153;DHT22;11242;50.536;12.688;2023-03-31T17:20:36;8.70;99.90
22153;DHT22;11242;50.536;12.688;2023-03-31T17:23:02;8.60;99.90
22153;DHT22;11242;50.536;12.688;2023-03-31T17:25:28;8.50;99.90
22153;DHT22;11242;50.536;12.688;2023-03-31T17:27:54;8.40;99.90
22153;DHT22;11242;50.536;12.688;2023-03-31T17:30:20;8.30;99.90
22153;DHT22;11242;50.536;12.688;2023-03-31T17:32:46;8.30;99.90
22153;DHT22;11242;50.536;12.688;2023-03-31T17:35:12;8.10;99.90
22153;DHT22;11242;50.536;12.688;2023-03-31T17:37:45;8.10;99.90
22153;DHT22;11242;50.536;12.688;2023-03-31T17:40:11;8.00;99.90
22153;DHT22;11242;50.536;12.688;2023-03-31T17:42:37;8.00;99.90
22153;DHT22;11242;50.536;12.688;2023-03-31T17:45:03;8.10;99.90
22153;DHT22;11242;50.536;12.688;2023-03-31T17:47:30;8.00;99.90
22153;DHT22;11242;50.536;12.688;2023-03-31T17:49:57;8.10;99.90
22153;DHT22;11242;50.536;12.688;2023-03-31T17:52:23;8.10;99.90
22153;DHT22;11242;50.536;12.688;2023-03-31T17:54:49;8.10;99.90
22153;DHT22;11242;50.536;12.688;2023-03-31T17:57:14;8.00;99.90
22153;DHT22;11242;50.536;12.688;2023-03-31T17:59:41;7.90;99.90
22153;DHT22;11242;50.536;12.688;2023-03-31T18:02:06;7.90;99.90
22153;DHT22;11242;50.536;12.688;2023-03-31T18:04:32;7.80;99.90
22153;DHT22;11242;50.536;12.688;2023-03-31T18:06:58;7.70;99.90
22153;DHT22;11242;50.536;12.688;2023-03-31T18:09:24;7.70;99.90
22153;DHT22;11242;50.536;12.688;2023-03-31T18:11:50;7.60;99.90
22153;DHT22;11242;50.536;12.688;2023-03-31T18:14:16;7.50;99.90
22153;DHT22;11242;50.536;12.688;2023-03-31T18:16:41;7.50;99.90
22153;DHT22;11242;50.536;12.688;2023-03-31T18:19:07;7.50;99.90
22153;DHT22;11242;50.536;12.688;2023-03-31T18:21:33;7.40;99.90
22153;DHT22;11242;50.536;12.688;2023-03-31T18:23:59;7.40;99.90
22153;DHT22;11242;50.536;12.688;2023-03-31T18:26:25;7.40;99.90
22153;DHT22;11242;50.536;12.688;2023-03-31T18:28:52;7.40;99.90
22153;DHT22;11242;50.536;12.688;2023-03-31T18:31:18;7.40;99.90
22153;DHT22;11242;50.536;12.688;2023-03-31T18:33:45;7.40;99.90
22153;DHT22;11242;50.536;12.688;2023-03-31T18:36:18;7.50;99.90
22153;DHT22;11242;50.536;12.688;2023-03-31T18:38:45;7.50;99.90
22153;DHT22;11242;50.536;12.688;2023-03-31T18:41:12;7.60;99.90
22153;DHT22;11242;50.536;12.688;2023-03-31T18:43:38;7.60;99.90
22153;DHT22;11242;50.536;12.688;2023-03-31T18:46:04;7.60;99.90
22153;DHT22;11242;50.536;12.688;2023-03-31T18:48:30;7.60;99.90
22153;DHT22;11242;50.536;12.688;2023-03-31T18:50:56;7.50;99.90
22153;DHT22;11242;50.536;12.688;2023-03-31T18:53:23;7.50;99.90
22153;DHT22;11242;50.536;12.688;2023-03-31T18:55:50;7.50;99.90
22153;DHT22;11242;50.536;12.688;2023-03-31T18:58:16;7.50;99.90
22153;DHT22;11242;50.536;12.688;2023-03-31T19:00:42;7.50;99.90
22153;DHT22;11242;50.536;12.688;2023-03-31T19:03:08;7.40;99.90
22153;DHT22;11242;50.536;12.688;2023-03-31T19:05:34;7.40;99.90
22153;DHT22;11242;50.536;12.688;2023-03-31T19:07:59;7.60;99.90
22153;DHT22;11242;50.536;12.688;2023-03-31T19:10:26;7.60;99.90
22153;DHT22;11242;50.536;12.688;2023-03-31T19:12:52;7.60;99.90
22153;DHT22;11242;50.536;12.688;2023-03-31T19:15:19;7.70;99.90
22153;DHT22;11242;50.536;12.688;2023-03-31T19:17:45;7.70;99.90
22153;DHT22;11242;50.536;12.688;2023-03-31T19:20:11;7.80;99.90
22153;DHT22;11242;50.536;12.688;2023-03-31T19:22:44;7.80;99.90
22153;DHT22;11242;50.536;12.688;2023-03-31T19:25:11;7.70;99.90
22153;DHT22;11242;50.536;12.688;2023-03-31T19:27:37;7.60;99.90
22153;DHT22;11242;50.536;12.688;2023-03-31T19:30:03;7.50;99.90
22153;DHT22;11242;50.536;12.688;2023-03-31T19:32:29;7.50;99.90
22153;DHT22;11242;50.536;12.688;2023-03-31T19:34:55;7.40;99.90
22153;DHT22;11242;50.536;12.688;2023-03-31T19:37:20;7.40;99.90
22153;DHT22;11242;50.536;12.688;2023-03-31T19:39:46;7.30;99.90
22153;DHT22;11242;50.536;12.688;2023-03-31T19:42:12;7.40;99.90
22153;DHT22;11242;50.536;12.688;2023-03-31T19:44:39;7.40;99.90
22153;DHT22;11242;50.536;12.688;2023-03-31T19:47:05;7.50;99.90
22153;DHT22;11242;50.536;12.688;2023-03-31T19:49:30;7.60;99.90
22153;DHT22;11242;50.536;12.688;2023-03-31T19:51:56;7.70;99.90
22153;DHT22;11242;50.536;12.688;2023-03-31T19:54:21;7.80;99.90
22153;DHT22;11242;50.536;12.688;2023-03-31T19:56:47;7.90;99.90
22153;DHT22;11242;50.536;12.688;2023-03-31T19:59:14;7.90;99.90
22153;DHT22;11242;50.536;12.688;2023-03-31T20:01:39;7.80;99.90
22153;DHT22;11242;50.536;12.688;2023-03-31T20:04:05;7.80;99.90
22153;DHT22;11242;50.536;12.688;2023-03-31T20:06:33;7.70;99.90
22153;DHT22;11242;50.536;12.688;2023-03-31T20:09:00;7.80;99.90
22153;DHT22;11242;50.536;12.688;2023-03-31T20:11:28;7.80;99.90
22153;DHT22;11242;50.536;12.688;2023-03-31T20:13:55;7.90;99.90
22153;DHT22;11242;50.536;12.688;2023-03-31T20:16:24;7.90;99.90
22153;DHT22;11242;50.536;12.688;2023-03-31T20:18:55;7.90;99.90
22153;DHT22;11242;50.536;12.688;2023-03-31T20:21:24;7.90;99.90
22153;DHT22;11242;50.536;12.688;2023-03-31T20:23:50;7.90;99.90
22153;DHT22;11242;50.536;12.688;2023-03-31T20:26:18;7.90;99.90
22153;DHT22;11242;50.536;12.688;2023-03-31T20:28:45;7.90;99.90
22153;DHT22;11242;50.536;12.688;2023-03-31T20:31:21;7.80;99.90
22153;DHT22;11242;50.536;12.688;2023-03-31T20:33:47;7.70;99.90
22153;DHT22;11242;50.536;12.688;2023-03-31T20:36:15;7.70;99.90
22153;DHT22;11242;50.536;12.688;2023-03-31T20:38:43;7.60;99.90
22153;DHT22;11242;50.536;12.688;2023-03-31T20:41:09;7.60;99.90
22153;DHT22;11242;50.536;12.688;2023-03-31T20:43:36;7.60;99.90
22153;DHT22;11242;50.536;12.688;2023-03-31T20:46:03;7.60;99.90
22153;DHT22;11242;50.536;12.688;2023-03-31T20:48:39;7.60;99.90
22153;DHT22;11242;50.536;12.688;2023-03-31T20:51:06;7.50;99.90
22153;DHT22;11242;50.536;12.688;2023-03-31T20:53:33;7.50;99.90
22153;DHT22;11242;50.536;12.688;2023-03-31T20:56:07;7.50;99.90
22153;DHT22;11242;50.536;12.688;2023-03-31T20:58:34;7.50;99.90
22153;DHT22;11242;50.536;12.688;2023-03-31T21:01:00;7.50;99.90
22153;DHT22;11242;50.536;12.688;2023-03-31T21:03:25;7.50;99.90
22153;DHT22;11242;50.536;12.688;2023-03-31T21:05:51;7.50;99.90
22153;DHT22;11242;50.536;12.688;2023-03-31T21:08:17;7.50;99.90
22153;DHT22;11242;50.536;12.688;2023-03-31T21:10:44;7.50;99.90
22153;DHT22;11242;50.536;12.688;2023-03-31T21:13:10;7.50;99.90
22153;DHT22;11242;50.536;12.688;2023-03-31T21:15:37;7.50;99.90
22153;DHT22;11242;50.536;12.688;2023-03-31T21:18:03;7.50;99.90
22153;DHT22;11242;50.536;12.688;2023-03-31T21:20:29;7.50;99.90
22153;DHT22;11242;50.536;12.688;2023-03-31T21:22:55;7.50;99.90
22153;DHT22;11242;50.536;12.688;2023-03-31T21:25:22;7.50;99.90
22153;DHT22;11242;50.536;12.688;2023-03-31T21:27:48;7.50;99.90
22153;DHT22;11242;50.536;12.688;2023-03-31T21:30:15;7.50;99.90
22153;DHT22;11242;50.536;12.688;2023-03-31T21:32:41;7.60;99.90
22153;DHT22;11242;50.536;12.688;2023-03-31T21:35:07;7.60;99.90
22153;DHT22;11242;50.536;12.688;2023-03-31T21:37:33;7.60;99.90
22153;DHT22;11242;50.536;12.688;2023-03-31T21:39:59;7.60;99.90
22153;DHT22;11242;50.536;12.688;2023-03-31T21:42:25;7.60;99.90
22153;DHT22;11242;50.536;12.688;2023-03-31T21:44:50;7.60;99.90
22153;DHT22;11242;50.536;12.688;2023-03-31T21:47:23;7.60;99.90
22153;DHT22;11242;50.536;12.688;2023-03-31T21:49:49;7.60;99.90
22153;DHT22;11242;50.536;12.688;2023-03-31T21:52:15;7.60;99.90
22153;DHT22;11242;50.536;12.688;2023-03-31T21:54:41;7.70;99.90
22153;DHT22;11242;50.536;12.688;2023-03-31T21:57:07;7.60;99.90
22153;DHT22;11242;50.536;12.688;2023-03-31T21:59:33;7.60;99.90
22153;DHT22;11242;50.536;12.688;2023-03-31T22:01:58;7.60;99.90
22153;DHT22;11242;50.536;12.688;2023-03-31T22:04:24;7.60;99.90
22153;DHT22;11242;50.536;12.688;2023-03-31T22:06:50;7.60;99.90
22153;DHT22;11242;50.536;12.688;2023-03-31T22:09:15;7.60;99.90
22153;DHT22;11242;50.536;12.688;2023-03-31T22:11:41;7.60;99.90
22153;DHT22;11242;50.536;12.688;2023-03-31T22:14:06;7.60;99.90
22153;DHT22;11242;50.536;12.688;2023-03-31T22:16:32;7.60;99.90
22153;DHT22;11242;50.536;12.688;2023-03-31T22:18:58;7.50;99.90
22153;DHT22;11242;50.536;12.688;2023-03-31T22:21:38;7.50;99.90
22153;DHT22;11242;50.536;12.688;2023-03-31T22:24:03;7.50;99.90
22153;DHT22;11242;50.536;12.688;2023-03-31T22:26:30;7.50;99.90
22153;DHT22;11242;50.536;12.688;2023-03-31T22:28:56;7.50;99.90
22153;DHT22;11242;50.536;12.688;2023-03-31T22:31:22;7.50;99.90
22153;DHT22;11242;50.536;12.688;2023-03-31T22:33:48;7.50;99.90
22153;DHT22;11242;50.536;12.688;2023-03-31T22:36:14;7.50;99.90
22153;DHT22;11242;50.536;12.688;2023-03-31T22:38:39;7.40;99.90
22153;DHT22;11242;50.536;12.688;2023-03-31T22:41:06;7.40;99.90
22153;DHT22;11242;50.536;12.688;2023-03-31T22:43:32;7.40;99.90
22153;DHT22;11242;50.536;12.688;2023-03-31T22:46:05;7.30;99.90
22153;DHT22;11242;50.536;12.688;2023-03-31T22:48:32;7.30;99.90
22153;DHT22;11242;50.536;12.688;2023-03-31T22:51:00;7.30;99.90
22153;DHT22;11242;50.536;12.688;2023-03-31T22:53:25;7.30;99.90
22153;DHT22;11242;50.536;12.688;2023-03-31T22:55:51;7.30;99.90
22153;DHT22;11242;50.536;12.688;2023-03-31T22:58:17;7.30;99.90
22153;DHT22;11242;50.536;12.688;2023-03-31T23:00:43;7.30;99.90
22153;DHT22;11242;50.536;12.688;2023-03-31T23:03:08;7.30;99.90
22153;DHT22;11242;50.536;12.688;2023-03-31T23:05:34;7.30;99.90
22153;DHT22;11242;50.536;12.688;2023-03-31T23:08:00;7.30;99.90
22153;DHT22;11242;50.536;12.688;2023-03-31T23:10:26;7.30;99.90
22153;DHT22;11242;50.536;12.688;2023-03-31T23:12:51;7.30;99.90
22153;DHT22;11242;50.536;12.688;2023-03-31T23:15:17;7.30;99.90
22153;DHT22;11242;50.536;12.688;2023-03-31T23:17:43;7.30;99.90
22153;DHT22;11242;50.536;12.688;2023-03-31T23:20:09;7.40;99.90
22153;DHT22;11242;50.536;12.688;2023-03-31T23:22:34;7.40;99.90
22153;DHT22;11242;50.536;12.688;2023-03-31T23:25:00;7.40;99.90
22153;DHT22;11242;50.536;12.688;2023-03-31T23:27:26;7.40;99.90
22153;DHT22;11242;50.536;12.688;2023-03-31T23:29:51;7.40;99.90
22153;DHT22;11242;50.536;12.688;2023-03-31T23:32:17;7.30;99.90
22153;DHT22;11242;50.536;12.688;2023-03-31T23:34:43;7.30;99.90
22153;DHT22;11242;50.536;12.688;2023-03-31T23:37:10;7.30;99.90
22153;DHT22;11242;50.536;12.688;2023-03-31T23:39:36;7.30;99.90
22153;DHT22;11242;50.536;12.688;2023-03-31T23:42:04;7.30;99.90
22153;DHT22;11242;50.536;12.688;2023-03-31T23:44:30;7.20;99.90
22153;DHT22;11242;50.536;12.688;2023-03-31T23:46:56;7.30;99.90
22153;DHT22;11242;50.536;12.688;2023-03-31T23:49:22;7.30;99.90
22153;DHT22;11242;50.536;12.688;2023-03-31T23:51:47;7.40;99.90
22153;DHT22;11242;50.536;12.688;2023-03-31T23:54:13;7.40;99.90
22153;DHT22;11242;50.536;12.688;2023-03-31T23:56:38;7.40;99.90
22153;DHT22;11242;50.536;12.688;2023-03-31T23:59:04;7.40;99.90
